Time;durP1;ratioP1;P1;durP2;ratioP2;P2;SDS_P1;SDS_P2;PMS_P1;PMS_P2;Temp;Humidity;BMP_temperature;BMP_pressure;BME280_temperature;BME280_humidity;BME280_pressure;Samples;Min_cycle;Max_cycle;Signal;HPM_P1;HPM_P2
2023/01/18 00:00:36;;;;;;;7.10;2.90;;;3.00;99.90;;;;;;5075234;28;20427;-78
2023/01/18 00:03:02;;;;;;;8.83;3.40;;;3.00;99.90;;;;;;5074566;28;20035;-79
2023/01/18 00:05:29;;;;;;;6.47;3.00;;;3.00;99.90;;;;;;5074335;28;20024;-78
2023/01/18 00:07:54;;;;;;;9.33;3.50;;;3.00;99.90;;;;;;5074144;28;20028;-79
2023/01/18 00:10:21;;;;;;;6.33;3.20;;;3.00;99.90;;;;;;5074883;28;20362;-78
2023/01/18 00:12:47;;;;;;;7.80;3.00;;;3.00;99.90;;;;;;5093073;28;20032;-79
2023/01/18 00:15:13;;;;;;;7.90;3.10;;;2.90;99.90;;;;;;5074626;28;20138;-78
2023/01/18 00:17:50;;;;;;;5.87;2.77;;;2.90;99.90;;;;;;5092576;28;20083;-78
2023/01/18 00:20:22;;;;;;;7.27;3.47;;;2.80;99.90;;;;;;5092779;28;20027;-77
2023/01/18 00:22:47;;;;;;;6.13;2.63;;;2.80;99.90;;;;;;5092914;28;20027;-78
2023/01/18 00:25:13;;;;;;;6.13;2.97;;;2.80;99.90;;;;;;5074324;28;20028;-78
2023/01/18 00:27:44;;;;;;;6.43;3.10;;;2.80;99.90;;;;;;5074857;28;20024;-78
2023/01/18 00:30:11;;;;;;;7.70;2.22;;;2.80;99.90;;;;;;5092707;28;20028;-78
2023/01/18 00:32:37;;;;;;;7.87;3.30;;;2.80;99.90;;;;;;5074636;28;20027;-78
2023/01/18 00:35:06;;;;;;;7.30;3.17;;;2.80;99.90;;;;;;5092102;28;20032;-79
2023/01/18 00:37:35;;;;;;;7.43;3.20;;;2.80;99.90;;;;;;5074648;28;20362;-79
2023/01/18 00:40:02;;;;;;;7.17;2.90;;;2.80;99.90;;;;;;5094739;28;20024;-78
2023/01/18 00:45:12;;;;;;;10.30;3.47;;;2.80;99.90;;;;;;5095719;28;20093;-79
2023/01/18 00:47:37;;;;;;;8.13;3.07;;;2.80;99.90;;;;;;5078690;28;20020;-79
2023/01/18 00:50:03;;;;;;;6.90;3.10;;;2.90;99.90;;;;;;5077938;28;20031;-78
2023/01/18 00:52:29;;;;;;;6.53;3.23;;;2.90;99.90;;;;;;5096268;28;20035;-78
2023/01/18 00:54:55;;;;;;;6.07;3.13;;;2.90;99.90;;;;;;5095792;28;20024;-83
2023/01/18 00:57:21;;;;;;;7.20;3.23;;;2.80;99.90;;;;;;5096028;28;20028;-78
2023/01/18 00:59:46;;;;;;;8.53;3.50;;;2.80;99.90;;;;;;5078248;28;20081;-78
2023/01/18 01:02:13;;;;;;;7.07;3.40;;;2.80;99.90;;;;;;5077775;28;20024;-78
2023/01/18 01:07:23;;;;;;;6.27;3.07;;;2.90;99.90;;;;;;5096319;28;20027;-78
2023/01/18 01:09:48;;;;;;;5.50;3.07;;;2.90;99.90;;;;;;5077699;28;20459;-78
2023/01/18 01:26:11;;;;;;;6.90;3.00;;;2.80;99.90;;;;;;5095532;28;20090;-78
2023/01/18 01:28:40;;;;;;;7.40;3.30;;;2.90;99.90;;;;;;5078182;28;20123;-78
2023/01/18 01:31:09;;;;;;;5.93;3.27;;;2.90;99.90;;;;;;5077298;28;20077;-79
2023/01/18 01:33:36;;;;;;;6.37;3.13;;;2.90;99.90;;;;;;5077513;28;20389;-78
2023/01/18 01:36:05;;;;;;;5.70;3.10;;;2.90;99.90;;;;;;5105124;28;20035;-79
2023/01/18 01:38:31;;;;;;;6.43;3.30;;;2.90;99.90;;;;;;5097507;28;20032;-78
2023/01/18 01:41:10;;;;;;;6.77;3.57;;;2.90;99.90;;;;;;5097330;28;20039;-83
2023/01/18 01:43:46;;;;;;;6.00;3.13;;;2.80;99.90;;;;;;5097350;28;20052;-78
2023/01/18 01:46:31;;;;;;;7.17;3.30;;;2.90;99.90;;;;;;5114953;28;20423;-79
2023/01/18 01:49:23;;;;;;;8.10;3.50;;;3.00;99.90;;;;;;5097150;28;20023;-83
2023/01/18 01:51:55;;;;;;;;;;;2.90;99.90;;;;;;5097086;28;20434;-78
2023/01/18 01:54:38;;;;;;;6.55;3.05;;;2.90;99.90;;;;;;5097134;28;19904;-79
2023/01/18 01:57:09;;;;;;;6.20;3.13;;;2.90;99.90;;;;;;5096835;28;20046;-79
2023/01/18 01:59:39;;;;;;;7.78;3.70;;;2.90;99.90;;;;;;5097155;28;20476;-78
2023/01/18 02:02:05;;;;;;;6.83;3.40;;;3.00;99.90;;;;;;5097008;28;20032;-78
2023/01/18 02:04:32;;;;;;;8.00;3.80;;;2.90;99.90;;;;;;5097012;28;20027;-78
2023/01/18 02:06:57;;;;;;;9.17;4.40;;;3.00;99.90;;;;;;5115222;28;20067;-79
2023/01/18 02:09:23;;;;;;;7.83;4.03;;;3.00;99.90;;;;;;5096972;28;20062;-78
2023/01/18 02:11:54;;;;;;;8.43;3.73;;;2.90;99.90;;;;;;5097433;28;20032;-78
2023/01/18 02:14:22;;;;;;;7.30;4.00;;;2.90;99.90;;;;;;5096986;28;20039;-79
2023/01/18 02:16:48;;;;;;;13.27;4.30;;;2.90;99.90;;;;;;5097449;28;20429;-79
2023/01/18 02:19:44;;;;;;;9.03;3.97;;;2.90;99.90;;;;;;5096375;28;20074;-79
2023/01/18 02:22:37;;;;;;;8.53;4.10;;;2.90;99.90;;;;;;5096739;28;20027;-79
2023/01/18 02:25:43;;;;;;;6.67;4.00;;;2.80;99.90;;;;;;5096183;28;20031;-79
2023/01/18 02:28:17;;;;;;;7.03;3.67;;;2.80;99.90;;;;;;5096114;28;20059;-79
2023/01/18 02:30:50;;;;;;;6.13;3.40;;;2.90;99.90;;;;;;5096860;28;20027;-78
2023/01/18 02:33:42;;;;;;;9.40;3.70;;;2.90;99.90;;;;;;5096416;28;20028;-78
2023/01/18 02:36:09;;;;;;;8.45;3.42;;;2.90;99.90;;;;;;5114347;28;20051;-79
2023/01/18 02:38:44;;;;;;;8.63;3.90;;;2.90;99.90;;;;;;5096675;28;20043;-78
2023/01/18 02:46:29;;;;;;;6.50;3.43;;;2.90;99.90;;;;;;5096222;28;20055;-79
2023/01/18 02:46:59;;;;;;;7.37;4.20;;;2.80;99.90;;;;;;5114641;28;20042;-79
2023/01/18 02:49:30;;;;;;;8.87;4.07;;;2.80;99.90;;;;;;5096773;28;20396;-78
2023/01/18 02:52:04;;;;;;;9.43;5.43;;;2.70;99.90;;;;;;5096535;28;20475;-78
2023/01/18 02:54:34;;;;;;;7.67;3.63;;;2.80;99.90;;;;;;5096313;28;20388;-78
2023/01/18 02:57:08;;;;;;;8.83;4.20;;;2.80;99.90;;;;;;5096207;28;20058;-81
2023/01/18 02:59:45;;;;;;;9.20;4.43;;;2.80;99.90;;;;;;5096547;28;20028;-79
2023/01/18 03:02:17;;;;;;;9.10;4.50;;;2.90;99.90;;;;;;5095440;28;20051;-79
2023/01/18 03:04:53;;;;;;;11.00;5.13;;;2.90;99.90;;;;;;5114467;28;20091;-78
2023/01/18 03:07:38;;;;;;;9.73;4.53;;;2.90;99.90;;;;;;5113622;28;20047;-78
2023/01/18 03:10:07;;;;;;;13.33;5.50;;;2.90;99.90;;;;;;5095102;28;20058;-82
2023/01/18 03:12:46;;;;;;;11.13;5.03;;;2.90;99.90;;;;;;5096298;28;20024;-78
2023/01/18 03:15:42;;;;;;;11.13;5.10;;;2.90;99.90;;;;;;5095618;28;20028;-79
2023/01/18 03:18:26;;;;;;;8.97;5.07;;;2.80;99.90;;;;;;5113570;28;20040;-79
2023/01/18 03:20:55;;;;;;;12.07;5.13;;;2.90;99.90;;;;;;5096342;28;20070;-79
2023/01/18 03:23:39;;;;;;;10.07;4.70;;;2.90;99.90;;;;;;5095781;28;20343;-80
2023/01/18 03:26:15;;;;;;;11.33;4.70;;;2.80;99.90;;;;;;5095108;28;20050;-81
2023/01/18 03:34:48;;;;;;;11.67;5.00;;;2.90;99.90;;;;;;5093254;28;20078;-78
2023/01/18 03:37:19;;;;;;;9.50;4.93;;;2.80;99.90;;;;;;5103906;28;20047;-79
2023/01/18 03:40:05;;;;;;;12.40;4.93;;;2.90;99.90;;;;;;5094937;28;20035;-75
2023/01/18 03:43:00;;;;;;;10.90;4.60;;;2.90;99.90;;;;;;5079666;28;20088;-76
2023/01/18 03:45:31;;;;;;;10.03;5.10;;;2.80;99.90;;;;;;5103617;28;20507;-76
2023/01/18 03:47:58;;;;;;;11.90;4.70;;;2.80;99.90;;;;;;5095273;28;20020;-76
2023/01/18 03:50:33;;;;;;;13.43;7.73;;;2.80;99.90;;;;;;5094619;28;20647;-75
2023/01/18 03:53:03;;;;;;;11.53;5.90;;;2.80;99.90;;;;;;5113406;28;20016;-75
2023/01/18 03:55:51;;;;;;;8.47;4.67;;;2.80;99.90;;;;;;5112938;28;20031;-75
2023/01/18 03:58:23;;;;;;;9.50;4.23;;;2.70;99.90;;;;;;5100510;28;20024;-78
2023/01/18 04:00:51;;;;;;;8.90;4.55;;;2.70;99.90;;;;;;5094531;28;20027;-79
2023/01/18 04:03:17;;;;;;;8.80;4.37;;;2.70;99.90;;;;;;5093991;28;20024;-78
2023/01/18 04:05:42;;;;;;;9.57;4.23;;;2.70;99.90;;;;;;5094845;28;20039;-79
2023/01/18 04:08:08;;;;;;;6.63;3.60;;;2.60;99.90;;;;;;5094165;28;20473;-79
2023/01/18 04:10:34;;;;;;;9.23;4.60;;;2.60;99.90;;;;;;5094947;28;20032;-78
2023/01/18 04:12:59;;;;;;;5.60;3.57;;;2.50;99.90;;;;;;5113500;28;20421;-78
2023/01/18 04:15:25;;;;;;;6.40;3.67;;;2.60;99.90;;;;;;5097586;28;20067;-78
2023/01/18 04:17:54;;;;;;;6.63;4.07;;;2.60;99.90;;;;;;5101377;28;20054;-79
2023/01/18 04:20:20;;;;;;;6.23;4.00;;;2.60;99.90;;;;;;5099490;28;20076;-79
2023/01/18 04:22:51;;;;;;;6.97;3.63;;;2.50;99.90;;;;;;5112144;28;20465;-79
2023/01/18 04:25:17;;;;;;;6.82;3.28;;;2.40;99.90;;;;;;5106778;28;20073;-79
2023/01/18 04:27:42;;;;;;;7.93;4.13;;;2.40;99.90;;;;;;5104330;28;20027;-79
2023/01/18 04:30:08;;;;;;;8.07;3.67;;;2.40;99.90;;;;;;5113408;28;20027;-79
2023/01/18 04:32:34;;;;;;;7.87;4.43;;;2.40;99.90;;;;;;5099306;28;20031;-80
2023/01/18 04:35:00;;;;;;;5.50;3.60;;;2.40;99.90;;;;;;5117521;28;20023;-79
2023/01/18 04:37:32;;;;;;;7.70;4.03;;;2.40;99.90;;;;;;5115656;28;20035;-79
2023/01/18 04:39:59;;;;;;;9.70;4.07;;;2.40;99.90;;;;;;5101864;28;20031;-78
2023/01/18 04:42:24;;;;;;;8.53;4.10;;;2.40;99.90;;;;;;5116559;28;20437;-79
2023/01/18 04:44:51;;;;;;;8.83;3.90;;;2.50;99.90;;;;;;5110916;28;20606;-79
2023/01/18 04:47:17;;;;;;;7.13;3.90;;;2.50;99.90;;;;;;5106153;28;20047;-78
2023/01/18 04:49:43;;;;;;;7.37;3.63;;;2.50;99.90;;;;;;5116918;28;20517;-79
2023/01/18 04:52:08;;;;;;;6.43;3.37;;;2.50;99.90;;;;;;5098197;28;20049;-79
2023/01/18 04:54:34;;;;;;;6.80;3.87;;;2.50;99.90;;;;;;5116875;28;20103;-79
2023/01/18 04:57:00;;;;;;;14.27;5.40;;;2.60;99.90;;;;;;5104320;28;20028;-78
2023/01/18 04:59:25;;;;;;;25.83;9.73;;;2.50;99.90;;;;;;5106489;28;20038;-78
2023/01/18 05:01:51;;;;;;;29.63;13.90;;;2.50;99.90;;;;;;5102041;28;20015;-78
2023/01/18 05:04:17;;;;;;;14.97;6.90;;;2.40;99.90;;;;;;5097627;28;20023;-78
2023/01/18 05:06:43;;;;;;;14.17;6.37;;;2.40;99.90;;;;;;5116438;28;20023;-79
2023/01/18 05:09:11;;;;;;;13.33;5.63;;;2.50;99.90;;;;;;5107727;28;20031;-78
2023/01/18 05:11:36;;;;;;;13.30;4.40;;;2.50;99.90;;;;;;5116533;28;20050;-78
2023/01/18 05:14:02;;;;;;;8.57;4.30;;;2.50;99.90;;;;;;5098093;28;20020;-80
2023/01/18 05:16:27;;;;;;;7.50;3.93;;;2.40;99.90;;;;;;5099253;28;20027;-78
2023/01/18 05:18:53;;;;;;;7.73;3.57;;;2.40;99.90;;;;;;5109863;28;20051;-80
2023/01/18 05:21:19;;;;;;;8.57;3.43;;;2.50;99.90;;;;;;5097569;28;20051;-78
2023/01/18 05:23:45;;;;;;;6.10;3.10;;;2.40;99.90;;;;;;5116366;28;20038;-78
2023/01/18 05:26:16;;;;;;;7.27;3.10;;;2.40;99.90;;;;;;5097243;28;20035;-79
2023/01/18 05:28:42;;;;;;;7.27;3.23;;;2.40;99.90;;;;;;5079181;28;20531;-78
2023/01/18 05:31:08;;;;;;;5.63;3.27;;;2.40;99.90;;;;;;5094299;28;20521;-79
2023/01/18 05:33:33;;;;;;;6.63;3.20;;;2.40;99.90;;;;;;5114842;28;20114;-80
2023/01/18 05:35:59;;;;;;;5.47;2.67;;;2.50;99.90;;;;;;5115446;28;20036;-79
2023/01/18 05:38:24;;;;;;;6.70;2.80;;;2.40;99.90;;;;;;5115118;28;20046;-79
2023/01/18 05:40:52;;;;;;;6.03;2.33;;;2.40;99.90;;;;;;5101855;28;20365;-78
2023/01/18 05:43:19;;;;;;;5.27;2.57;;;2.40;99.90;;;;;;5114123;28;20027;-79
2023/01/18 05:45:45;;;;;;;4.70;2.90;;;2.50;99.90;;;;;;5101900;28;20096;-79
2023/01/18 05:48:11;;;;;;;5.43;2.63;;;2.50;99.90;;;;;;5114564;28;20060;-78
2023/01/18 05:50:42;;;;;;;5.73;2.83;;;2.50;99.90;;;;;;5111335;28;20024;-78
2023/01/18 05:53:08;;;;;;;4.95;2.70;;;2.50;99.90;;;;;;5096600;28;20479;-79
2023/01/18 05:55:33;;;;;;;6.03;2.87;;;2.50;99.90;;;;;;5107338;28;20036;-80
2023/01/18 05:57:59;;;;;;;4.77;2.70;;;2.50;99.90;;;;;;5087530;28;20498;-79
2023/01/18 06:00:25;;;;;;;8.13;3.10;;;2.40;99.90;;;;;;5112645;28;20593;-78
2023/01/18 06:02:52;;;;;;;6.43;2.73;;;2.40;99.90;;;;;;5097568;28;20156;-79
2023/01/18 06:05:18;;;;;;;4.23;2.67;;;2.40;99.90;;;;;;5104344;28;20031;-78
2023/01/18 06:07:44;;;;;;;5.83;2.40;;;2.40;99.90;;;;;;5113711;28;20031;-78
2023/01/18 06:10:10;;;;;;;8.93;3.20;;;2.40;99.90;;;;;;5097330;28;20427;-79
2023/01/18 06:12:35;;;;;;;3.97;2.60;;;2.40;99.90;;;;;;5098871;28;20034;-80
2023/01/18 06:15:01;;;;;;;11.10;2.90;;;2.40;99.90;;;;;;5103989;28;20088;-78
2023/01/18 06:17:30;;;;;;;5.57;3.17;;;2.20;99.90;;;;;;5114052;28;20508;-79
2023/01/18 06:19:56;;;;;;;8.80;2.47;;;2.20;99.90;;;;;;5096657;28;20122;-78
2023/01/18 06:22:21;;;;;;;6.80;2.67;;;2.20;99.90;;;;;;5096112;28;20043;-78
2023/01/18 06:24:47;;;;;;;7.73;2.97;;;2.20;99.90;;;;;;5096412;28;20483;-78
2023/01/18 06:27:13;;;;;;;5.07;3.03;;;2.20;99.90;;;;;;5107659;28;20024;-78
2023/01/18 06:29:38;;;;;;;5.97;3.10;;;2.20;99.90;;;;;;5090591;28;20026;-78
2023/01/18 06:32:04;;;;;;;6.03;2.70;;;2.20;99.90;;;;;;5096114;28;20028;-80
2023/01/18 06:34:29;;;;;;;6.00;2.73;;;2.20;99.90;;;;;;5096030;28;20027;-79
2023/01/18 06:36:55;;;;;;;6.37;3.07;;;2.30;99.90;;;;;;5114101;28;20043;-79
2023/01/18 06:39:21;;;;;;;4.97;2.60;;;2.30;99.90;;;;;;5095850;28;20035;-78
2023/01/18 06:41:46;;;;;;;5.40;2.90;;;2.30;99.90;;;;;;5114163;28;20379;-78
2023/01/18 06:44:12;;;;;;;6.60;3.20;;;2.30;99.90;;;;;;5095531;28;20376;-79
2023/01/18 06:46:37;;;;;;;5.43;2.90;;;2.30;99.90;;;;;;5095942;28;20024;-80
2023/01/18 06:49:03;;;;;;;5.13;2.87;;;2.30;99.90;;;;;;5095857;28;20597;-82
2023/01/18 06:51:29;;;;;;;6.17;2.97;;;2.30;99.90;;;;;;5095801;28;20034;-79
2023/01/18 06:53:54;;;;;;;6.80;3.00;;;2.30;99.90;;;;;;5096330;28;20024;-81
2023/01/18 06:56:20;;;;;;;6.57;3.40;;;2.30;99.90;;;;;;5095543;28;20027;-79
2023/01/18 06:58:45;;;;;;;5.93;3.13;;;2.30;99.90;;;;;;5101680;28;20041;-80
2023/01/18 07:01:11;;;;;;;9.53;3.33;;;2.30;99.90;;;;;;5095276;28;20106;-78
2023/01/18 07:03:37;;;;;;;7.93;3.00;;;2.20;99.90;;;;;;5096109;28;20022;-78
2023/01/18 07:06:05;;;;;;;6.53;3.10;;;2.30;99.90;;;;;;5096065;28;20103;-79
2023/01/18 07:08:31;;;;;;;6.80;3.13;;;2.20;99.90;;;;;;5095418;28;20346;-79
2023/01/18 07:10:58;;;;;;;5.93;3.07;;;2.20;99.90;;;;;;5113250;28;20373;-82
2023/01/18 07:13:24;;;;;;;6.80;3.53;;;2.20;99.90;;;;;;5113650;28;20203;-78
2023/01/18 07:15:58;;;;;;;5.97;3.30;;;2.10;99.90;;;;;;5096262;28;20443;-80
2023/01/18 07:18:24;;;;;;;5.80;3.17;;;2.00;99.90;;;;;;5080080;28;20083;-79
2023/01/18 07:21:05;;;;;;;6.20;3.10;;;2.10;99.90;;;;;;5092420;28;20060;-77
2023/01/18 07:23:34;;;;;;;8.18;3.35;;;2.10;99.90;;;;;;5091485;28;20020;-78
2023/01/18 07:26:18;;;;;;;8.00;3.47;;;2.00;99.90;;;;;;5091388;28;20469;-79
2023/01/18 07:28:44;;;;;;;7.10;3.20;;;2.10;99.90;;;;;;5077673;28;20028;-77
2023/01/18 07:31:10;;;;;;;8.20;3.20;;;2.10;99.90;;;;;;5090241;28;20115;-78
2023/01/18 07:33:36;;;;;;;7.00;3.60;;;2.10;99.90;;;;;;5090843;28;20441;-78
2023/01/18 07:36:05;;;;;;;6.80;3.43;;;2.10;99.90;;;;;;5090577;28;20544;-78
2023/01/18 07:38:31;;;;;;;9.10;3.40;;;2.00;99.90;;;;;;5090753;28;20035;-77
2023/01/18 07:41:02;;;;;;;4.37;2.70;;;2.00;99.90;;;;;;5091215;28;20503;-78
2023/01/18 07:43:29;;;;;;;5.33;3.00;;;2.10;99.90;;;;;;5092478;28;20587;-78
2023/01/18 07:45:56;;;;;;;5.07;2.83;;;2.10;99.90;;;;;;5090974;28;20560;-78
2023/01/18 07:48:25;;;;;;;6.37;2.63;;;2.10;99.90;;;;;;5090194;28;20016;-84
2023/01/18 07:51:03;;;;;;;5.13;2.80;;;2.10;99.90;;;;;;5092501;28;20020;-80
2023/01/18 07:53:30;;;;;;;7.30;2.97;;;2.10;99.90;;;;;;5091385;28;20028;-77
2023/01/18 07:56:01;;;;;;;6.30;2.90;;;2.10;99.90;;;;;;5091668;28;20046;-79
2023/01/18 07:58:27;;;;;;;5.67;2.40;;;2.00;99.90;;;;;;5076619;28;20020;-78
2023/01/18 08:00:53;;;;;;;6.93;3.23;;;2.10;99.90;;;;;;5091273;28;20024;-78
2023/01/18 08:03:19;;;;;;;7.77;3.07;;;2.10;99.90;;;;;;5091175;28;20035;-78
2023/01/18 08:05:45;;;;;;;6.63;3.07;;;2.10;99.90;;;;;;5091402;28;20461;-78
2023/01/18 08:08:13;;;;;;;7.60;3.10;;;2.10;99.90;;;;;;5091048;28;20035;-79
2023/01/18 08:10:40;;;;;;;6.20;2.90;;;2.20;99.90;;;;;;5091563;28;20434;-78
2023/01/18 08:13:08;;;;;;;6.43;2.70;;;2.20;99.90;;;;;;5092817;28;20115;-79
2023/01/18 08:15:35;;;;;;;10.17;4.80;;;2.20;99.90;;;;;;5092299;28;20469;-81
2023/01/18 08:18:04;;;;;;;8.57;4.27;;;2.20;99.90;;;;;;5099374;28;20481;-80
2023/01/18 08:20:30;;;;;;;8.60;3.97;;;2.20;99.90;;;;;;5094299;28;20040;-81
2023/01/18 08:22:58;;;;;;;7.17;3.17;;;2.30;99.90;;;;;;5094694;28;20186;-77
2023/01/18 08:25:28;;;;;;;5.57;3.20;;;2.40;99.90;;;;;;5094762;28;20080;-80
2023/01/18 08:27:57;;;;;;;7.17;3.43;;;2.40;99.90;;;;;;5101217;28;20020;-78
2023/01/18 08:30:26;;;;;;;10.10;3.80;;;2.40;99.90;;;;;;5085069;28;20074;-82
2023/01/18 08:32:56;;;;;;;10.57;4.37;;;2.40;99.90;;;;;;5094411;28;20477;-76
2023/01/18 08:35:22;;;;;;;9.63;4.03;;;2.30;99.90;;;;;;5093470;28;20032;-78
2023/01/18 08:37:48;;;;;;;11.60;4.30;;;2.40;99.90;;;;;;5093861;28;20034;-77
2023/01/18 08:40:14;;;;;;;10.97;4.33;;;2.50;99.90;;;;;;5092509;28;20162;-76
2023/01/18 08:42:39;;;;;;;8.97;4.53;;;2.50;99.90;;;;;;5093974;28;20054;-78
2023/01/18 08:45:05;;;;;;;7.97;4.13;;;2.50;99.90;;;;;;5093752;28;20057;-79
2023/01/18 08:47:31;;;;;;;9.40;4.27;;;2.50;99.90;;;;;;5093194;28;20020;-78
2023/01/18 08:49:56;;;;;;;9.17;3.83;;;2.60;99.90;;;;;;5111240;28;20024;-76
2023/01/18 08:52:22;;;;;;;8.83;3.80;;;2.50;99.90;;;;;;5095361;28;20461;-78
2023/01/18 08:54:48;;;;;;;7.33;3.70;;;2.60;99.90;;;;;;5095658;28;20024;-79
2023/01/18 08:57:13;;;;;;;6.47;3.80;;;2.60;99.90;;;;;;5090585;28;20035;-79
2023/01/18 08:59:39;;;;;;;12.33;5.47;;;2.60;99.90;;;;;;5107257;28;20024;-77
2023/01/18 09:02:05;;;;;;;8.67;3.93;;;2.70;99.90;;;;;;5098169;28;20020;-79
2023/01/18 09:04:30;;;;;;;7.03;4.00;;;2.70;99.90;;;;;;5115427;28;20015;-78
2023/01/18 09:06:57;;;;;;;7.60;3.33;;;2.70;99.90;;;;;;5116368;28;20393;-78
2023/01/18 09:09:22;;;;;;;5.90;3.20;;;2.70;99.90;;;;;;5098106;28;20417;-77
2023/01/18 09:11:51;;;;;;;6.77;3.87;;;2.70;99.90;;;;;;5099960;28;20617;-79
2023/01/18 09:14:17;;;;;;;6.93;3.37;;;2.70;99.90;;;;;;5100107;28;20047;-78
2023/01/18 09:16:42;;;;;;;8.13;3.70;;;2.70;99.90;;;;;;5098061;28;20062;-78
2023/01/18 09:19:08;;;;;;;9.63;3.57;;;2.80;99.90;;;;;;5114561;28;20047;-78
2023/01/18 09:21:34;;;;;;;8.10;3.40;;;2.80;99.90;;;;;;5097699;28;20026;-79
2023/01/18 09:24:00;;;;;;;8.07;3.13;;;2.80;99.90;;;;;;5097127;28;20023;-79
2023/01/18 09:26:26;;;;;;;6.23;3.67;;;2.80;99.90;;;;;;5096942;28;20035;-76
2023/01/18 09:28:52;;;;;;;6.43;3.27;;;2.80;99.90;;;;;;5097255;28;20023;-77
2023/01/18 09:31:24;;;;;;;5.70;3.17;;;2.80;99.90;;;;;;5097102;28;20047;-77
2023/01/18 09:33:50;;;;;;;5.13;3.35;;;2.80;99.90;;;;;;5094780;28;20424;-77
2023/01/18 09:36:16;;;;;;;14.37;3.87;;;2.80;99.90;;;;;;5097122;28;20059;-77
2023/01/18 09:38:43;;;;;;;6.00;3.13;;;2.80;99.90;;;;;;5100143;28;20096;-86
2023/01/18 09:41:21;;;;;;;6.83;3.27;;;2.80;99.90;;;;;;5100198;28;20027;-83
2023/01/18 09:43:50;;;;;;;30.23;12.93;;;2.70;99.90;;;;;;5096983;28;20031;-79
2023/01/18 09:46:22;;;;;;;16.47;7.13;;;2.70;99.90;;;;;;5093081;28;20031;-78
2023/01/18 09:48:59;;;;;;;11.38;4.10;;;2.80;99.90;;;;;;5093846;28;20027;-77
2023/01/18 09:51:44;;;;;;;5.93;3.73;;;2.90;99.90;;;;;;5096085;28;20028;-78
2023/01/18 09:54:14;;;;;;;7.23;3.83;;;3.00;99.90;;;;;;5096304;28;20016;-79
2023/01/18 09:56:39;;;;;;;7.67;3.97;;;3.00;99.90;;;;;;5114148;28;20032;-80
2023/01/18 09:59:14;;;;;;;8.10;3.80;;;3.00;99.90;;;;;;5096571;28;20133;-78
2023/01/18 10:01:40;;;;;;;6.23;3.30;;;3.00;99.90;;;;;;5087941;28;20024;-80
2023/01/18 10:04:35;;;;;;;8.43;3.30;;;3.10;99.90;;;;;;5082773;28;20116;-80
2023/01/18 10:07:15;;;;;;;7.23;3.50;;;3.20;99.90;;;;;;5095184;28;20059;-87
2023/01/18 10:09:47;;;;;;;5.00;2.80;;;3.10;99.90;;;;;;5105660;28;20389;-80
2023/01/18 10:12:25;;;;;;;9.00;3.75;;;3.20;99.90;;;;;;5086169;28;20431;-79
2023/01/18 10:15:19;;;;;;;10.80;3.57;;;3.20;99.90;;;;;;5081448;28;20130;-80
2023/01/18 10:17:46;;;;;;;5.83;3.27;;;3.10;99.90;;;;;;5107630;28;20048;-82
2023/01/18 10:20:22;;;;;;;26.40;10.27;;;3.20;99.90;;;;;;5087771;28;20179;-80
2023/01/18 10:22:56;;;;;;;8.97;4.63;;;3.40;99.90;;;;;;5108131;28;20024;-89
2023/01/18 10:25:33;;;;;;;5.87;3.13;;;3.40;99.90;;;;;;5097679;28;20090;-83
2023/01/18 10:28:17;;;;;;;8.87;3.47;;;3.40;99.90;;;;;;5095778;28;20024;-81
2023/01/18 10:30:42;;;;;;;6.77;3.00;;;3.50;99.90;;;;;;5101196;28;20096;-80
2023/01/18 10:33:26;;;;;;;6.83;4.13;;;3.60;99.90;;;;;;5096865;28;20120;-86
2023/01/18 10:36:00;;;;;;;11.00;3.40;;;3.60;99.90;;;;;;5092777;28;20031;-82
2023/01/18 10:38:29;;;;;;;7.67;3.23;;;3.70;99.90;;;;;;5076853;28;20469;-79
2023/01/18 10:41:00;;;;;;;6.87;3.17;;;3.70;99.90;;;;;;5076348;28;20032;-81
2023/01/18 10:43:28;;;;;;;4.78;2.60;;;3.70;99.90;;;;;;5081493;28;20333;-79
2023/01/18 10:45:55;;;;;;;6.37;3.33;;;3.80;99.90;;;;;;5096961;28;20059;-80
2023/01/18 10:48:27;;;;;;;7.50;2.80;;;3.90;99.90;;;;;;5096805;28;20031;-79
2023/01/18 10:50:55;;;;;;;3.57;2.10;;;3.90;99.90;;;;;;5115106;28;20068;-79
2023/01/18 10:53:37;;;;;;;6.53;1.90;;;4.00;99.90;;;;;;5096581;28;20020;-79
2023/01/18 10:56:17;;;;;;;5.05;1.95;;;4.00;99.90;;;;;;5096619;28;20496;-79
2023/01/18 10:58:57;;;;;;;4.80;1.70;;;4.00;99.90;;;;;;5084646;28;20034;-79
2023/01/18 11:01:34;;;;;;;21.43;8.30;;;3.90;99.90;;;;;;5095759;28;20032;-79
2023/01/18 11:04:13;;;;;;;16.80;7.63;;;3.90;99.90;;;;;;5096678;28;20027;-79
2023/01/18 11:06:47;;;;;;;7.47;2.00;;;3.90;99.90;;;;;;5096569;28;20037;-79
2023/01/18 11:09:55;;;;;;;4.73;1.67;;;3.80;99.90;;;;;;5095866;28;20027;-78
2023/01/18 11:12:42;;;;;;;4.73;1.30;;;3.90;99.90;;;;;;5092344;28;20028;-79
2023/01/18 11:15:13;;;;;;;2.80;1.10;;;3.90;99.90;;;;;;5075734;28;20461;-82
2023/01/18 11:17:53;;;;;;;3.88;1.30;;;3.90;99.90;;;;;;5091247;28;20052;-79
2023/01/18 11:20:44;;;;;;;4.77;1.43;;;3.90;99.90;;;;;;5095736;28;20385;-79
2023/01/18 11:23:13;;;;;;;4.13;1.33;;;3.80;99.90;;;;;;5102287;28;20024;-82
2023/01/18 11:25:50;;;;;;;6.37;1.33;;;3.90;99.90;;;;;;5114033;28;20056;-79
2023/01/18 11:28:28;;;;;;;2.23;1.10;;;3.90;99.90;;;;;;5088150;28;20027;-79
2023/01/18 11:31:18;;;;;;;5.40;1.60;;;4.00;99.90;;;;;;5107730;28;20527;-79
2023/01/18 11:33:58;;;;;;;3.90;1.20;;;4.00;99.90;;;;;;5095768;28;20024;-79
2023/01/18 11:36:37;;;;;;;3.87;1.17;;;4.00;99.90;;;;;;5113361;28;20111;-79
2023/01/18 11:39:23;;;;;;;4.80;1.30;;;4.00;99.90;;;;;;5112931;28;20020;-79
2023/01/18 11:41:49;;;;;;;4.60;1.40;;;4.10;99.90;;;;;;5099934;28;20020;-79
2023/01/18 11:44:22;;;;;;;7.37;3.57;;;4.10;99.90;;;;;;5111239;28;20020;-78
2023/01/18 11:46:55;;;;;;;5.07;1.97;;;4.20;99.90;;;;;;5107905;28;20112;-78
2023/01/18 11:49:39;;;;;;;2.47;1.10;;;4.30;99.90;;;;;;5103298;28;20461;-78
2023/01/18 11:52:41;;;;;;;2.57;1.20;;;4.40;99.90;;;;;;5096967;28;20054;-78
2023/01/18 11:55:18;;;;;;;1.88;1.17;;;4.50;99.90;;;;;;5111957;28;20050;-79
2023/01/18 11:57:44;;;;;;;2.37;0.90;;;4.50;99.90;;;;;;5094915;28;20118;-77
2023/01/18 12:00:14;;;;;;;3.00;1.17;;;4.50;99.90;;;;;;5076782;28;20458;-79
2023/01/18 12:03:10;;;;;;;2.43;1.23;;;4.60;99.90;;;;;;5111951;28;20030;-78
2023/01/18 12:05:41;;;;;;;1.73;1.03;;;4.60;99.90;;;;;;5101180;28;20032;-78
2023/01/18 12:08:30;;;;;;;2.17;1.10;;;4.60;99.90;;;;;;5095154;28;20042;-81
2023/01/18 12:11:23;;;;;;;3.90;1.30;;;4.60;99.90;;;;;;5105838;28;20036;-79
2023/01/18 12:14:14;;;;;;;2.47;1.20;;;4.60;99.90;;;;;;5092932;28;20032;-77
2023/01/18 12:16:55;;;;;;;3.13;0.98;;;4.60;99.90;;;;;;5093126;28;20031;-77
2023/01/18 12:19:58;;;;;;;4.03;1.27;;;4.60;99.90;;;;;;5082426;28;20501;-78
2023/01/18 12:22:43;;;;;;;4.37;1.07;;;4.60;99.90;;;;;;5083322;28;20066;-77
2023/01/18 12:25:20;;;;;;;3.13;1.20;;;4.50;99.90;;;;;;5092310;28;20025;-80
2023/01/18 12:28:14;;;;;;;3.67;1.27;;;4.50;99.90;;;;;;5080878;28;20078;-77
2023/01/18 12:30:43;;;;;;;3.50;1.47;;;4.60;99.90;;;;;;5086404;28;20079;-78
2023/01/18 12:33:20;;;;;;;4.50;1.30;;;4.50;99.90;;;;;;5089319;28;20040;-80
2023/01/18 12:35:55;;;;;;;3.33;1.20;;;4.40;99.90;;;;;;5088077;28;20098;-78
2023/01/18 12:38:30;;;;;;;1.47;0.70;;;4.40;99.90;;;;;;5079946;28;20436;-77
2023/01/18 12:41:19;;;;;;;2.37;0.77;;;4.50;99.90;;;;;;5083808;28;20036;-79
2023/01/18 12:44:02;;;;;;;1.90;0.60;;;4.40;99.90;;;;;;5096452;28;20023;-77
2023/01/18 12:46:52;;;;;;;2.80;0.70;;;4.50;99.90;;;;;;5093177;28;20158;-79
2023/01/18 12:49:20;;;;;;;3.60;0.70;;;4.40;99.90;;;;;;5095138;28;20534;-77
2023/01/18 12:51:56;;;;;;;0.93;0.60;;;4.40;99.90;;;;;;5095570;28;20031;-79
2023/01/18 12:54:40;;;;;;;1.30;0.70;;;4.40;99.90;;;;;;5075653;28;20024;-76
2023/01/18 12:57:07;;;;;;;3.50;1.00;;;4.50;99.70;;;;;;5086466;28;20039;-77
2023/01/18 12:59:47;;;;;;;2.23;0.97;;;4.60;99.70;;;;;;5093600;28;20028;-76
2023/01/18 13:02:33;;;;;;;1.70;0.83;;;4.70;99.20;;;;;;5092422;28;20358;-78
2023/01/18 13:05:36;;;;;;;3.13;0.80;;;4.80;99.10;;;;;;5092825;28;20028;-78
2023/01/18 13:08:25;;;;;;;1.87;0.60;;;4.90;97.90;;;;;;5093662;28;20078;-77
2023/01/18 13:10:55;;;;;;;2.47;0.70;;;5.00;97.10;;;;;;5082099;28;20051;-78
2023/01/18 13:13:26;;;;;;;1.60;0.87;;;5.10;97.50;;;;;;5092958;28;20464;-78
2023/01/18 13:16:04;;;;;;;2.30;0.80;;;5.30;97.60;;;;;;5094032;28;20032;-79
2023/01/18 13:18:39;;;;;;;2.83;0.80;;;5.60;96.50;;;;;;5091367;28;20100;-78
2023/01/18 13:21:15;;;;;;;17.37;5.93;;;5.80;95.20;;;;;;5097274;28;20468;-78
2023/01/18 13:23:47;;;;;;;8.53;4.63;;;6.00;94.90;;;;;;5097563;28;20528;-78
2023/01/18 13:26:26;;;;;;;6.20;2.72;;;6.10;93.70;;;;;;5096890;28;20059;-79
2023/01/18 13:29:08;;;;;;;3.23;1.60;;;6.10;99.60;;;;;;5085178;28;20031;-79
2023/01/18 13:31:35;;;;;;;4.27;1.47;;;6.20;99.90;;;;;;5097292;28;20042;-79
2023/01/18 13:34:02;;;;;;;2.97;1.50;;;6.10;99.90;;;;;;5082705;28;20028;-79
2023/01/18 13:36:40;;;;;;;1.90;1.00;;;6.50;99.90;;;;;;5075921;28;20188;-79
2023/01/18 13:39:14;;;;;;;4.20;1.43;;;6.70;98.20;;;;;;5078442;28;20028;-79
2023/01/18 13:42:03;;;;;;;2.60;1.00;;;6.70;98.10;;;;;;5097667;28;20085;-78
2023/01/18 13:44:40;;;;;;;1.47;0.80;;;6.60;97.50;;;;;;5096838;28;20040;-79
2023/01/18 13:47:34;;;;;;;4.57;1.00;;;6.30;98.40;;;;;;5114228;28;20038;-78